Latest Weather Observations for Nullo Mountain

IDN60801

Issued at 1:53 pm EST Friday 17 September 2021 (issued every 10 minutes, with the page automatically refreshed every 10 minutes)

About weather observations | Map of weather stations | Latest weather observations for NSW | Other Formats
Station Details ID: 062100 Name: NULLO MOUNTAIN AWS Lat: -32.72 Lon: 150.23 Height: 1130.0 m
Data from the previous 72 hours. | See also: Recent months at Nullo Mountain
Date/Time
EST
Temp
°C
App
Temp
°C
Dew
Point
°C
Rel
Hum
%
Delta-T
°C
Wind Press
QNH
hPa
Press
MSL
hPa
Rain since
9am
mm
Dir  Spd
km/h
Gust
km/h
Spd
kts
Gust
kts
17/01:30pm 12.5 9.7 5.2 61 3.6 N 9 19 5 10 - - 0.0
17/01:00pm 13.2 11.2 7.2 67 3.1 NNE 7 15 4 8 - - 0.0
17/12:30pm 13.3 11.4 6.9 65 3.3 ENE 6 9 3 5 - - 0.0
17/12:00pm 13.5 11.1 4.4 54 4.5 NW 6 9 3 5 - - 0.0
17/11:30am 12.8 10.3 4.0 55 4.2 NNW 6 9 3 5 - - 0.0
17/11:00am 11.9 9.4 3.7 57 3.9 NNW 6 13 3 7 - - 0.0
17/10:30am 12.0 10.1 6.5 69 2.8 NW 6 9 3 5 - - 0.0
17/10:00am 10.8 8.5 4.7 66 2.9 N 6 15 3 8 - - 0.0
17/09:30am 10.4 7.6 5.2 70 2.5 N 9 17 5 9 - - 0.0
17/09:00am 9.9 7.4 4.9 71 2.4 N 7 11 4 6 - - 0.2
17/08:30am 9.2 6.4 5.2 76 1.9 NE 9 15 5 8 - - 0.2
17/08:00am 8.3 5.5 5.1 80 1.5 NNE 9 13 5 7 - - 0.2
17/07:30am 7.3 4.8 5.0 85 1.1 NE 7 11 4 6 - - 0.2
17/07:00am 6.1 3.6 4.7 91 0.7 NE 7 13 4 7 - - 0.2
17/06:30am 5.2 2.7 4.6 96 0.3 NE 7 15 4 8 - - 0.2
17/06:00am 4.9 2.0 4.6 98 0.1 NNE 9 15 5 8 - - 0.2
17/05:30am 4.6 2.1 4.5 99 0.0 NE 7 13 4 7 - - 0.2
17/05:00am 4.4 1.8 4.3 99 0.0 NE 7 17 4 9 - - 0.2
17/04:30am 3.9 1.4 3.8 99 0.0 NE 6 9 3 5 - - 0.2
17/04:00am 3.1 0.8 2.8 98 0.1 ENE 4 7 2 4 - - 0.2
17/03:30am 3.3 0.4 2.6 95 0.3 E 7 9 4 5 - - 0.2
17/03:00am 3.5 0.2 2.6 94 0.4 E 9 15 5 8 - - 0.2
17/02:30am 3.1 0.1 1.8 91 0.5 E 7 13 4 7 - - 0.2
17/02:00am 3.3 0.4 2.7 96 0.3 E 7 11 4 6 - - 0.2
17/01:30am 3.7 0.2 3.6 99 0.0 E 11 15 6 8 - - 0.2
17/01:00am 3.7 1.0 3.7 100 0.0 E 7 13 4 7 - - 0.2
17/12:30am 4.4 1.5 4.4 100 0.0 E 9 13 5 7 - - 0.0
17/12:00am 4.8 1.2 4.8 100 0.0 E 13 17 7 9 - - 0.0
 
Date/Time
EST
Temp
°C
App
Temp
°C
Dew
Point
°C
Rel
Hum
%
Delta-T
°C
Wind Press
QNH
hPa
Press
MSL
hPa
Rain since
9am
mm
Dir  Spd
km/h
Gust
km/h
Spd
kts
Gust
kts
16/11:30pm 4.8 1.5 4.8 100 0.0 E 11 13 6 7 - - 0.0
16/11:00pm 4.4 1.1 4.3 99 0.0 E 11 13 6 7 - - 0.0
16/10:30pm 5.2 2.0 5.2 100 0.0 E 11 19 6 10 - - 0.0
16/10:00pm 5.7 2.3 5.7 100 0.0 E 13 20 7 11 - - 0.0
16/09:30pm 5.7 2.6 5.6 99 0.0 E 11 19 6 10 - - 0.0
16/09:00pm 6.0 2.2 5.9 99 0.0 E 15 19 8 10 - - 0.0
16/08:30pm 5.9 2.4 5.6 98 0.1 E 13 17 7 9 - - 0.0
16/08:00pm 5.8 2.2 4.8 93 0.5 E 13 17 7 9 - - 0.0
16/07:30pm 6.0 2.9 3.5 84 1.1 E 9 15 5 8 - - 0.0
16/07:00pm 6.0 3.6 1.9 75 1.8 ENE 4 6 2 3 - - 0.0
16/06:30pm 7.3 5.0 2.8 73 2.0 E 4 7 2 4 - - 0.0
16/06:00pm 7.8 4.9 2.7 70 2.3 E 7 11 4 6 - - 0.0
16/05:30pm 9.6 7.3 2.5 61 3.2 NE 4 9 2 5 - - 0.0
16/05:00pm 9.8 6.8 2.2 59 3.4 NE 7 9 4 5 - - 0.0
16/04:30pm 10.8 8.0 3.4 60 3.5 N 7 13 4 7 - - 0.0
16/04:00pm 10.3 7.5 1.9 56 3.8 NNE 6 9 3 5 - - 0.0
16/03:30pm 10.9 8.1 2.0 54 4.0 NNE 6 9 3 5 - - 0.0
16/03:00pm 10.4 7.8 3.0 60 3.4 SE 6 9 3 5 - - 0.0
16/02:30pm 9.7 6.7 1.8 58 3.5 ESE 7 9 4 5 - - 0.0
16/02:00pm 9.9 6.1 1.5 56 3.7 SE 11 17 6 9 - - 0.0
16/01:30pm 11.4 8.2 3.2 57 3.8 ESE 9 17 5 9 - - 0.0
16/01:00pm 11.2 8.5 2.5 55 4.0 NNE 6 11 3 6 - - 0.0
16/12:30pm 10.0 6.8 3.3 63 3.1 ESE 9 19 5 10 - - 0.0
16/12:00pm 9.1 6.4 2.4 63 3.0 NE 6 13 3 7 - - 0.0
16/11:30am 9.9 6.6 4.7 70 2.5 ESE 11 19 6 10 - - 0.0
16/11:00am 8.4 5.6 3.3 70 2.3 E 7 15 4 8 - - 0.0
16/10:30am 8.5 5.7 2.9 68 2.5 E 7 13 4 7 - - 0.0
16/10:00am 7.9 4.6 4.3 78 1.7 E 11 15 6 8 - - 0.0
16/09:30am 7.3 3.6 4.6 83 1.3 ESE 13 19 7 10 - - 0.0
16/09:00am 6.1 1.9 3.9 86 1.0 ESE 15 19 8 10 - - 0.0
16/08:30am 5.5 1.0 4.2 91 0.6 ESE 17 24 9 13 - - 0.0
16/08:00am 4.9 0.5 4.6 98 0.1 ESE 17 24 9 13 - - 0.0
16/07:30am 3.9 -0.3 3.9 100 0.0 ESE 15 20 8 11 - - 0.0
16/07:00am 2.5 -1.6 2.5 100 0.0 ESE 13 17 7 9 - - 0.0
16/06:30am 1.9 -1.9 1.8 99 0.0 SE 11 17 6 9 - - 0.0
16/06:00am 2.3 -1.4 2.2 99 0.0 SE 11 17 6 9 - - 0.0
16/05:30am 2.5 -1.2 2.4 99 0.0 SE 11 15 6 8 - - 0.0
16/05:00am 2.5 -1.6 2.4 99 0.0 SE 13 17 7 9 - - 0.0
16/04:30am 2.4 -1.7 2.3 99 0.0 SE 13 17 7 9 - - 0.0
16/04:00am 2.0 -1.8 1.9 99 0.0 SE 11 15 6 8 - - 0.0
16/03:30am 1.9 -2.3 1.5 97 0.2 ESE 13 15 7 8 - - 0.0
16/03:00am 2.1 -2.2 1.1 93 0.4 ESE 13 17 7 9 - - 0.0
16/02:30am 2.5 -1.8 1.2 91 0.5 ESE 13 15 7 8 - - 0.0
16/02:00am 2.9 -1.7 1.3 89 0.7 SE 15 20 8 11 - - 0.0
16/01:30am 3.0 -1.7 1.2 88 0.7 SE 15 20 8 11 - - 0.0
16/01:00am 2.8 -1.3 2.1 95 0.3 SE 13 17 7 9 - - 0.0
16/12:30am 3.1 -1.0 2.2 94 0.4 SE 13 17 7 9 - - 0.0
16/12:00am 3.2 -0.8 2.9 98 0.1 ESE 13 17 7 9 - - 0.0
 
Date/Time
EST
Temp
°C
App
Temp
°C
Dew
Point
°C
Rel
Hum
%
Delta-T
°C
Wind Press
QNH
hPa
Press
MSL
hPa
Rain since
9am
mm
Dir  Spd
km/h
Gust
km/h
Spd
kts
Gust
kts
15/11:30pm 3.6 -1.7 2.9 95 0.3 ESE 20 26 11 14 - - 0.0
15/11:00pm 3.9 -1.4 3.0 94 0.4 ESE 20 26 11 14 - - 0.0
15/10:30pm 4.4 -1.2 3.4 93 0.4 ESE 22 28 12 15 - - 0.0
15/10:00pm 5.2 0.4 4.8 97 0.2 ESE 19 28 10 15 - - 0.0
15/09:30pm 5.4 1.0 4.7 95 0.3 ESE 17 22 9 12 - - 0.0
15/09:00pm 5.4 0.9 4.1 91 0.6 ESE 17 24 9 13 - - 0.0
15/08:30pm 5.8 1.6 3.8 87 0.9 ESE 15 20 8 11 - - 0.0
15/08:00pm 6.2 1.4 2.5 77 1.6 ESE 17 24 9 13 - - 0.0
15/07:30pm 6.8 1.8 1.5 69 2.3 ESE 17 26 9 14 - - 0.0
15/07:00pm 6.6 2.4 1.7 71 2.1 ESE 13 20 7 11 - - 0.0
15/06:30pm 6.8 2.6 1.9 71 2.1 SE 13 19 7 10 - - 0.0
15/06:00pm 7.1 3.4 2.2 71 2.2 ESE 11 17 6 9 - - 0.0
15/05:30pm 7.8 4.4 2.1 67 2.5 ESE 9 13 5 7 - - 0.0
15/05:00pm 9.2 5.8 2.1 61 3.2 SSE 9 13 5 7 - - 0.0
15/04:30pm 9.3 5.5 1.7 59 3.4 SE 11 15 6 8 - - 0.0
15/04:00pm 10.7 7.7 2.0 55 4.0 E 7 17 4 9 - - 0.0
15/03:30pm 10.0 6.6 1.9 57 3.6 SSE 9 15 5 8 - - 0.0
15/03:00pm 10.3 7.1 0.9 52 4.2 SSW 7 13 4 7 - - 0.0
15/02:30pm 10.1 6.5 0.7 52 4.1 SE 9 13 5 7 - - 0.0
15/02:00pm 10.4 7.4 0.7 51 4.3 SSW 6 13 3 7 - - 0.0
15/01:30pm 10.1 7.0 1.2 54 3.9 SSE 7 15 4 8 - - 0.0
15/01:00pm 9.4 6.1 0.3 53 3.9 SW 7 17 4 9 - - 0.0
15/12:30pm 9.1 5.9 0.8 56 3.6 SW 7 15 4 8 - - 0.0
15/12:00pm 9.0 5.6 1.7 60 3.2 SE 9 15 5 8 - - 0.0
15/11:30am 8.3 4.9 1.7 63 2.9 S 9 17 5 9 - - 0.0
15/11:00am 8.0 4.8 1.0 61 3.0 SSW 7 17 4 9 - - 0.0
15/10:30am 6.8 3.3 1.1 67 2.4 SE 9 17 5 9 - - 0.0
15/10:00am 6.7 3.4 2.2 73 2.0 SSW 9 17 5 9 - - 0.0
15/09:30am 6.0 2.3 2.5 78 1.5 S 11 17 6 9 - - 0.0
15/09:00am 5.6 1.9 2.4 80 1.4 SSE 11 19 6 10 - - 0.0
15/08:30am 5.0 0.9 2.4 83 1.1 SSE 13 22 7 12 - - 0.0
15/08:00am 3.8 -1.6 1.4 84 1.0 SSE 19 28 10 15 - - 0.0
15/07:30am 3.4 -1.2 1.3 86 0.9 SSE 15 24 8 13 - - 0.0
15/07:00am 2.7 -2.0 0.6 86 0.9 SE 15 20 8 11 - - 0.0
15/06:30am 2.0 -2.8 0.1 87 0.8 SE 15 19 8 10 - - 0.0
15/06:00am 1.9 -2.9 0.3 89 0.6 SE 15 22 8 12 - - 0.0
15/05:30am 2.2 -2.9 0.6 89 0.6 SSE 17 22 9 12 - - 0.0
15/05:00am 1.9 -2.9 0.3 89 0.6 SE 15 20 8 11 - - 0.0
15/04:30am 2.3 -2.3 1.7 96 0.3 SE 15 22 8 12 - - 0.0
15/04:00am 2.2 -2.4 1.6 96 0.2 SE 15 20 8 11 - - 0.0
15/03:30am 2.2 -2.5 1.2 93 0.4 SE 15 20 8 11 - - 0.0
15/03:00am 2.6 -2.4 1.3 91 0.5 SE 17 24 9 13 - - 0.0
15/02:30am 2.6 -2.1 1.1 90 0.6 ESE 15 20 8 11 - - 0.0
15/02:00am 2.5 -2.1 1.3 92 0.5 SE 15 20 8 11 - - 0.0
15/01:30am 2.4 -2.3 0.9 90 0.6 SE 15 22 8 12 - - 0.0
15/01:00am 2.7 -1.2 1.2 90 0.6 SE 11 20 6 11 - - 0.0
15/12:30am 2.6 -2.0 1.4 92 0.5 SSE 15 26 8 14 - - 0.0
15/12:00am 2.8 -1.4 1.8 93 0.4 SSE 13 19 7 10 - - 0.0
 
Date/Time
EST
Temp
°C
App
Temp
°C
Dew
Point
°C
Rel
Hum
%
Delta-T
°C
Wind Press
QNH
hPa
Press
MSL
hPa
Rain since
9am
mm
Dir  Spd
km/h
Gust
km/h
Spd
kts
Gust
kts
14/11:30pm 3.2 -1.0 1.7 90 0.6 SSE 13 20 7 11 - - 0.0
14/11:00pm 3.3 -1.3 1.7 89 0.7 S 15 22 8 12 - - 0.0
14/10:30pm 3.6 -0.9 2.3 91 0.6 SSE 15 22 8 12 - - 0.0
14/10:00pm 3.5 -0.9 2.9 96 0.3 SE 15 20 8 11 - - 0.0
14/09:30pm 3.8 -0.5 3.1 95 0.3 SE 15 22 8 12 - - 0.0
14/09:00pm 4.1 -0.2 3.4 95 0.3 SE 15 19 8 10 - - 0.0
14/08:30pm 4.1 0.1 2.9 92 0.5 SE 13 19 7 10 - - 0.0
14/08:00pm 4.2 0.6 2.7 90 0.7 SE 11 17 6 9 - - 0.0
14/07:30pm 4.4 0.3 2.4 87 0.9 SE 13 24 7 13 - - 0.0
14/07:00pm 5.0 0.9 2.5 84 1.1 SE 13 20 7 11 - - 0.0
14/06:30pm 4.9 0.9 2.9 87 0.9 ESE 13 17 7 9 - - 0.0
14/06:00pm 5.4 2.3 1.3 75 1.7 ESE 7 9 4 5 - - 0.0
14/05:30pm 6.7 2.8 1.0 67 2.4 SE 11 20 6 11 - - 0.0
14/05:00pm 7.6 4.2 1.7 66 2.6 SE 9 19 5 10 - - 0.0
14/04:30pm 8.0 4.2 1.8 65 2.7 SSE 11 17 6 9 - - 0.0
14/04:00pm 8.4 4.7 2.4 66 2.7 SSE 11 19 6 10 - - 0.0
14/03:30pm 7.7 4.2 1.5 65 2.7 S 9 17 5 9 - - 0.0
14/03:00pm 8.8 4.7 2.2 63 3.0 S 13 20 7 11 - - 0.0
14/02:30pm 7.8 3.7 2.1 67 2.5 SSE 13 20 7 11 - - 0.0
14/02:00pm 7.8 3.7 2.1 67 2.5 S 13 20 7 11 - - 0.0

Other formats

Comma delimited format used in spreadsheet applications
http://www.bom.gov.au/fwo/IDN60801/IDN60801.94754.axf

JavaScript Object Notation format (JSON) in row-major order
http://www.bom.gov.au/fwo/IDN60801/IDN60801.94754.json

Data quality

Most of these data are generated automatically and are frequently updated. Quality checks on data are not normally performed. It is possible for incorrect values to appear. Refer to information at About Latest Weather Observations and please check the disclaimer before using these data.